Time;durP1;ratioP1;P1;durP2;ratioP2;P2;SDS_P1;SDS_P2;PMS_P1;PMS_P2;Temp;Humidity;BMP_temperature;BMP_pressure;BME280_temperature;BME280_humidity;BME280_pressure;Samples;Min_cycle;Max_cycle;Signal;HPM_P1;HPM_P2
2023/06/16 00:01:22;;;;;;;8.77;7.27;;;20.80;86.60;;;;;;5040073;28;20238;-61
2023/06/16 00:03:51;;;;;;;12.63;8.13;;;20.80;86.30;;;;;;5040728;28;20199;-61
2023/06/16 00:06:19;;;;;;;13.03;8.33;;;20.80;85.90;;;;;;5040338;28;20195;-61
2023/06/16 00:08:51;;;;;;;9.67;7.40;;;20.80;85.60;;;;;;5037012;28;20218;-61
2023/06/16 00:11:19;;;;;;;8.63;7.53;;;20.90;85.50;;;;;;5041363;28;20294;-61
2023/06/16 00:13:46;;;;;;;10.93;8.20;;;20.90;85.30;;;;;;5042005;28;21235;-61
2023/06/16 00:16:14;;;;;;;9.30;8.40;;;20.90;85.00;;;;;;5038319;28;20191;-61
2023/06/16 00:18:43;;;;;;;8.80;7.83;;;20.90;84.90;;;;;;5039374;28;20198;-61
2023/06/16 00:21:14;;;;;;;9.30;8.10;;;20.90;84.80;;;;;;5021303;28;20298;-62
2023/06/16 00:23:41;;;;;;;10.23;7.80;;;20.90;84.90;;;;;;5035616;28;20209;-62
2023/06/16 00:26:08;;;;;;;12.67;8.53;;;20.90;84.90;;;;;;5038608;28;20195;-61
2023/06/16 00:28:38;;;;;;;9.97;7.60;;;20.90;85.00;;;;;;5032414;28;20226;-61
2023/06/16 00:31:05;;;;;;;11.70;8.17;;;20.90;85.00;;;;;;5035096;28;20195;-61
2023/06/16 00:33:35;;;;;;;8.87;7.97;;;20.80;85.00;;;;;;5029062;28;21193;-61
2023/06/16 00:36:02;;;;;;;10.30;8.10;;;20.80;85.30;;;;;;5032766;28;20265;-61
2023/06/16 00:38:30;;;;;;;8.70;7.80;;;20.80;85.60;;;;;;5035123;28;20191;-61
2023/06/16 00:40:57;;;;;;;10.10;7.40;;;20.80;85.70;;;;;;5032671;28;20735;-61
2023/06/16 00:43:24;;;;;;;9.60;8.63;;;20.80;85.90;;;;;;5040768;28;20199;-62
2023/06/16 00:45:51;;;;;;;11.73;8.33;;;20.80;85.80;;;;;;5037517;28;20286;-61
2023/06/16 00:48:20;;;;;;;14.07;7.87;;;20.70;86.50;;;;;;5035378;28;20195;-61
2023/06/16 00:50:47;;;;;;;8.47;7.67;;;20.70;86.20;;;;;;5036598;28;20206;-62
2023/06/16 00:53:16;;;;;;;10.60;7.60;;;20.70;86.40;;;;;;5033205;28;20232;-63
2023/06/16 00:55:44;;;;;;;10.07;8.43;;;20.60;86.40;;;;;;5037910;28;20210;-61
2023/06/16 00:58:11;;;;;;;8.43;7.63;;;20.70;86.30;;;;;;5023425;28;20608;-62
2023/06/16 01:00:38;;;;;;;9.70;7.00;;;20.70;86.30;;;;;;5039577;28;20237;-61
2023/06/16 01:03:08;;;;;;;8.50;7.33;;;20.70;86.60;;;;;;5039885;28;20203;-63
2023/06/16 01:05:36;;;;;;;14.73;9.13;;;20.70;87.70;;;;;;5035843;28;20249;-61
2023/06/16 01:08:44;;;;;;;10.37;9.23;;;20.60;87.60;;;;;;5032680;28;20603;-61
2023/06/16 01:11:16;;;;;;;13.70;10.13;;;20.50;88.10;;;;;;5051846;28;20643;-61
2023/06/16 01:14:01;;;;;;;12.13;10.87;;;20.50;88.20;;;;;;5052062;28;20717;-61
2023/06/16 01:16:33;;;;;;;16.13;11.27;;;20.40;88.10;;;;;;5044537;28;20223;-61
2023/06/16 01:19:07;;;;;;;12.87;10.87;;;20.50;87.90;;;;;;5048571;28;20191;-61
2023/06/16 01:21:52;;;;;;;16.43;12.40;;;20.50;87.80;;;;;;5035429;28;20226;-61
2023/06/16 01:24:23;;;;;;;14.23;12.57;;;20.50;87.80;;;;;;5025433;28;20594;-61
2023/06/16 01:26:54;;;;;;;13.47;12.07;;;20.50;87.50;;;;;;5036310;28;20206;-62
2023/06/16 01:29:25;;;;;;;14.53;12.47;;;20.60;87.40;;;;;;5032765;28;20205;-62
2023/06/16 01:31:56;;;;;;;14.43;12.37;;;20.60;87.30;;;;;;5033141;28;20211;-62
2023/06/16 01:34:26;;;;;;;12.93;11.63;;;20.60;87.20;;;;;;5032057;28;20286;-61
2023/06/16 01:36:55;;;;;;;16.13;12.23;;;20.70;87.10;;;;;;5037578;28;20230;-62
2023/06/16 01:39:23;;;;;;;14.33;12.50;;;20.70;87.20;;;;;;5032146;28;20250;-62
2023/06/16 01:41:51;;;;;;;15.20;11.90;;;20.70;87.30;;;;;;5035196;28;20289;-62
2023/06/16 01:44:20;;;;;;;14.00;11.37;;;20.80;87.50;;;;;;5033538;28;20222;-62
2023/06/16 01:46:48;;;;;;;17.53;12.17;;;20.80;87.60;;;;;;5030511;28;20207;-61
2023/06/16 01:49:15;;;;;;;13.97;11.90;;;20.80;87.80;;;;;;5032906;28;20270;-61
2023/06/16 01:51:42;;;;;;;16.03;12.50;;;20.70;88.00;;;;;;5035846;28;20206;-61
2023/06/16 01:54:10;;;;;;;16.57;12.30;;;20.80;88.60;;;;;;5042220;28;20622;-61
2023/06/16 01:56:37;;;;;;;17.73;13.10;;;20.70;89.10;;;;;;5039284;28;20196;-61
2023/06/16 01:59:05;;;;;;;15.33;13.50;;;20.60;89.50;;;;;;5037498;28;20205;-63
2023/06/16 02:01:47;;;;;;;16.67;13.17;;;20.60;90.10;;;;;;5039907;28;20199;-62
2023/06/16 02:04:18;;;;;;;18.30;13.10;;;20.60;90.40;;;;;;5038163;28;20257;-62
2023/06/16 02:06:58;;;;;;;21.53;13.27;;;20.50;90.50;;;;;;5036978;28;20200;-63
2023/06/16 02:09:27;;;;;;;14.33;12.80;;;20.50;90.70;;;;;;5035740;28;20222;-62
2023/06/16 02:11:55;;;;;;;15.63;12.40;;;20.50;90.80;;;;;;5037275;28;20206;-62
2023/06/16 02:14:22;;;;;;;16.10;12.83;;;20.40;90.90;;;;;;5037009;28;20309;-62
2023/06/16 02:16:52;;;;;;;15.80;13.40;;;20.40;91.00;;;;;;5042502;28;20206;-62
2023/06/16 02:19:19;;;;;;;13.67;12.27;;;20.40;91.20;;;;;;5032811;28;20245;-62
2023/06/16 02:21:46;;;;;;;13.47;12.13;;;20.30;91.30;;;;;;5038573;28;20261;-62
2023/06/16 02:24:13;;;;;;;14.77;11.73;;;20.30;91.30;;;;;;5034510;28;20210;-62
2023/06/16 02:26:42;;;;;;;12.43;11.13;;;20.30;91.30;;;;;;5036517;28;20644;-62
2023/06/16 02:29:09;;;;;;;13.27;11.17;;;20.30;91.30;;;;;;5038283;28;20226;-61
2023/06/16 02:31:36;;;;;;;12.27;10.90;;;20.30;91.30;;;;;;5035906;28;20210;-62
2023/06/16 02:34:03;;;;;;;12.37;11.10;;;20.30;91.30;;;;;;5040720;28;20223;-65
2023/06/16 02:36:30;;;;;;;16.87;11.60;;;20.30;91.30;;;;;;5043147;28;20220;-62
2023/06/16 02:38:58;;;;;;;12.83;10.47;;;20.30;91.20;;;;;;5042004;28;20223;-62
2023/06/16 02:41:27;;;;;;;11.93;10.57;;;20.30;91.20;;;;;;5033697;28;20530;-62
2023/06/16 02:43:54;;;;;;;12.10;10.00;;;20.30;91.10;;;;;;5022298;28;20204;-62
2023/06/16 02:46:22;;;;;;;13.80;9.80;;;20.40;91.10;;;;;;5039872;28;20199;-62
2023/06/16 02:48:49;;;;;;;11.63;10.47;;;20.40;91.10;;;;;;5034676;28;20251;-62
2023/06/16 02:51:16;;;;;;;11.90;10.00;;;20.40;91.10;;;;;;5034106;28;20206;-61
2023/06/16 02:53:46;;;;;;;10.50;9.50;;;20.40;91.20;;;;;;5025842;28;20356;-62
2023/06/16 02:56:15;;;;;;;11.00;9.83;;;20.40;91.30;;;;;;5035798;28;20206;-62
2023/06/16 02:58:43;;;;;;;11.70;10.40;;;20.50;91.40;;;;;;5037672;28;20294;-62
2023/06/16 03:01:11;;;;;;;11.77;10.10;;;20.50;91.50;;;;;;5038739;28;20194;-61
2023/06/16 03:04:03;;;;;;;10.33;9.23;;;20.50;91.60;;;;;;5024472;28;20268;-62
2023/06/16 03:06:57;;;;;;;14.63;9.00;;;20.50;91.60;;;;;;5038859;28;20246;-62
2023/06/16 03:09:30;;;;;;;12.00;9.17;;;20.50;91.40;;;;;;5038120;28;20207;-61
2023/06/16 03:11:58;;;;;;;11.27;9.50;;;20.40;91.30;;;;;;5039602;28;20226;-61
2023/06/16 03:14:27;;;;;;;12.30;9.17;;;20.30;91.50;;;;;;5040188;28;20243;-61
2023/06/16 03:17:06;;;;;;;9.10;8.03;;;20.30;91.70;;;;;;5034024;28;20651;-61
2023/06/16 03:19:34;;;;;;;10.73;9.73;;;20.30;91.90;;;;;;5026855;28;20673;-62
2023/06/16 03:22:02;;;;;;;10.87;9.23;;;20.30;91.90;;;;;;5034312;28;20207;-61
2023/06/16 03:24:38;;;;;;;12.00;8.30;;;20.30;91.90;;;;;;5038104;28;20213;-62
2023/06/16 03:27:06;;;;;;;11.77;9.70;;;20.30;91.80;;;;;;5040073;28;20233;-62
2023/06/16 03:29:47;;;;;;;12.90;9.03;;;20.20;91.70;;;;;;5036021;28;20203;-61
2023/06/16 03:32:14;;;;;;;11.50;8.87;;;20.20;91.80;;;;;;5019157;28;20306;-61
2023/06/16 03:34:44;;;;;;;14.03;9.47;;;20.10;91.80;;;;;;5032621;28;20221;-61
2023/06/16 03:37:11;;;;;;;10.70;9.27;;;20.10;91.80;;;;;;5040412;28;20245;-63
2023/06/16 03:39:39;;;;;;;10.90;9.60;;;20.10;91.70;;;;;;5040002;28;20640;-61
2023/06/16 03:42:07;;;;;;;15.20;11.00;;;20.10;91.60;;;;;;5034890;28;20230;-62
2023/06/16 03:44:35;;;;;;;11.77;10.17;;;20.00;91.70;;;;;;5037334;28;20197;-62
2023/06/16 03:47:04;;;;;;;14.07;9.70;;;20.00;91.80;;;;;;5042398;28;20227;-62
2023/06/16 03:49:32;;;;;;;11.00;9.43;;;20.00;92.00;;;;;;5040356;28;20273;-61
2023/06/16 03:51:59;;;;;;;11.30;9.53;;;19.90;92.00;;;;;;5039647;28;20643;-61
2023/06/16 03:54:29;;;;;;;13.53;9.93;;;19.90;92.10;;;;;;5036644;28;20676;-62
2023/06/16 03:56:57;;;;;;;14.10;10.50;;;19.90;92.10;;;;;;5037949;28;20202;-62
2023/06/16 03:59:25;;;;;;;13.13;9.80;;;19.90;92.20;;;;;;5033609;28;20191;-62
2023/06/16 04:01:53;;;;;;;15.83;11.17;;;19.80;92.40;;;;;;5034642;28;20194;-61
2023/06/16 04:04:27;;;;;;;14.40;10.90;;;19.90;92.00;;;;;;5051236;28;20312;-62
2023/06/16 04:06:57;;;;;;;18.10;11.93;;;19.80;92.00;;;;;;5037575;28;20215;-63
2023/06/16 04:09:25;;;;;;;15.80;12.57;;;19.80;92.10;;;;;;5035859;28;20635;-62
2023/06/16 04:11:53;;;;;;;14.23;12.30;;;19.80;92.20;;;;;;5036934;28;20635;-62
2023/06/16 04:14:22;;;;;;;14.40;11.53;;;19.80;92.30;;;;;;5031290;28;20327;-62
2023/06/16 04:16:51;;;;;;;18.73;12.80;;;19.80;92.30;;;;;;5030276;28;20233;-62
2023/06/16 04:19:19;;;;;;;18.07;12.10;;;19.90;92.40;;;;;;5036384;28;20289;-61
2023/06/16 04:21:47;;;;;;;14.60;12.30;;;19.90;92.30;;;;;;5033182;28;20200;-62
2023/06/16 04:24:17;;;;;;;29.27;13.30;;;19.90;92.30;;;;;;5043248;28;20207;-61
2023/06/16 04:26:48;;;;;;;17.73;12.13;;;19.90;92.20;;;;;;5036105;28;20210;-61
2023/06/16 04:29:20;;;;;;;19.80;14.33;;;20.00;92.30;;;;;;5034937;28;20272;-61
2023/06/16 04:31:51;;;;;;;14.80;12.97;;;20.00;92.30;;;;;;5034353;28;20647;-63
2023/06/16 04:34:19;;;;;;;17.43;13.80;;;20.10;92.40;;;;;;5034530;28;20536;-62
2023/06/16 04:36:46;;;;;;;16.40;13.30;;;20.10;92.40;;;;;;5033941;28;20548;-62
2023/06/16 04:39:23;;;;;;;18.43;13.00;;;20.20;92.30;;;;;;5035812;28;20199;-62
2023/06/16 04:41:51;;;;;;;14.73;13.23;;;20.20;92.60;;;;;;5031051;28;20195;-62
2023/06/16 04:44:20;;;;;;;19.13;14.70;;;20.20;92.40;;;;;;5032028;28;20238;-64
2023/06/16 04:46:47;;;;;;;18.07;15.57;;;20.30;92.50;;;;;;5038153;28;20649;-61
2023/06/16 04:49:15;;;;;;;16.50;14.67;;;20.40;92.40;;;;;;5032992;28;20238;-62
2023/06/16 04:51:44;;;;;;;15.97;14.23;;;20.40;92.30;;;;;;5035814;28;20293;-62
2023/06/16 04:54:11;;;;;;;19.43;12.80;;;20.40;92.30;;;;;;5036562;28;20809;-62
2023/06/16 04:56:39;;;;;;;19.63;14.20;;;20.50;92.30;;;;;;5031934;28;20655;-62
2023/06/16 04:59:08;;;;;;;19.97;13.03;;;20.60;92.30;;;;;;5032404;28;20219;-63
2023/06/16 05:01:36;;;;;;;25.23;13.43;;;20.70;92.20;;;;;;5023371;28;20273;-62
2023/06/16 05:04:03;;;;;;;16.80;11.80;;;20.70;92.10;;;;;;5031042;28;20538;-63
2023/06/16 05:06:35;;;;;;;18.10;13.40;;;20.80;92.10;;;;;;5032005;28;20595;-63
2023/06/16 05:09:04;;;;;;;16.23;13.53;;;20.80;92.00;;;;;;5032910;28;20246;-62
2023/06/16 05:11:31;;;;;;;15.10;12.50;;;20.90;91.90;;;;;;5022793;28;20210;-62
2023/06/16 05:13:59;;;;;;;14.77;13.00;;;21.00;91.90;;;;;;5025411;28;20237;-63
2023/06/16 05:16:27;;;;;;;19.67;13.60;;;21.10;91.90;;;;;;5036450;28;20286;-62
2023/06/16 05:18:56;;;;;;;14.33;12.73;;;21.20;91.90;;;;;;5036037;28;20302;-62
2023/06/16 05:21:25;;;;;;;17.17;13.57;;;21.30;91.80;;;;;;5033399;28;20214;-62
2023/06/16 05:23:55;;;;;;;14.13;12.63;;;21.30;91.70;;;;;;5031617;28;20199;-62
2023/06/16 05:26:22;;;;;;;16.73;14.80;;;21.50;91.50;;;;;;5035557;28;20202;-62
2023/06/16 05:28:50;;;;;;;14.63;13.10;;;21.60;91.20;;;;;;5048903;28;20227;-62
2023/06/16 05:31:19;;;;;;;13.33;11.93;;;21.70;91.00;;;;;;5029589;28;20507;-61
2023/06/16 05:33:46;;;;;;;12.93;11.63;;;21.90;90.80;;;;;;5034446;28;20195;-62
2023/06/16 05:36:14;;;;;;;16.50;11.67;;;22.00;90.70;;;;;;5027328;28;20210;-62
2023/06/16 05:38:42;;;;;;;13.17;11.53;;;22.20;90.40;;;;;;5036063;28;20232;-62
2023/06/16 05:41:10;;;;;;;12.80;11.53;;;22.40;90.00;;;;;;5033303;28;20196;-63
2023/06/16 05:43:43;;;;;;;11.53;10.40;;;22.60;89.30;;;;;;5034610;28;20322;-63
2023/06/16 05:46:10;;;;;;;11.27;10.10;;;22.70;88.30;;;;;;5033078;28;20618;-62
2023/06/16 05:48:38;;;;;;;15.87;11.67;;;22.90;87.70;;;;;;5032337;28;20215;-62
2023/06/16 05:51:09;;;;;;;12.23;10.83;;;23.00;87.00;;;;;;5033630;28;20810;-62
2023/06/16 05:53:36;;;;;;;13.27;9.37;;;23.10;86.40;;;;;;5032661;28;20226;-62
2023/06/16 05:56:03;;;;;;;18.93;11.13;;;23.10;86.20;;;;;;5017958;28;20218;-63
2023/06/16 05:58:35;;;;;;;11.93;9.10;;;23.20;85.60;;;;;;5029042;28;20214;-62
2023/06/16 06:01:06;;;;;;;10.27;9.23;;;23.20;85.30;;;;;;5019773;28;20674;-62
2023/06/16 06:03:35;;;;;;;10.53;9.53;;;23.30;84.20;;;;;;5033228;28;20206;-63
2023/06/16 06:06:04;;;;;;;10.67;9.23;;;23.40;84.00;;;;;;5034298;28;20257;-63
2023/06/16 06:08:32;;;;;;;13.00;10.10;;;23.40;83.30;;;;;;5034626;28;20214;-62
2023/06/16 06:11:01;;;;;;;12.60;10.23;;;23.50;82.90;;;;;;5046697;28;20434;-60
2023/06/16 06:13:29;;;;;;;10.17;9.07;;;23.50;82.70;;;;;;5014925;28;20287;-60
2023/06/16 06:15:56;;;;;;;9.33;8.47;;;23.60;83.50;;;;;;5034333;28;20679;-62
2023/06/16 06:18:24;;;;;;;10.07;9.00;;;23.70;83.60;;;;;;5032422;28;20211;-62
2023/06/16 06:20:51;;;;;;;10.17;9.17;;;23.80;82.50;;;;;;5038027;28;20636;-62
2023/06/16 06:23:18;;;;;;;12.30;7.90;;;23.90;81.60;;;;;;5027318;28;20204;-62
2023/06/16 06:25:47;;;;;;;13.30;9.00;;;24.00;82.00;;;;;;5030702;28;20200;-62
2023/06/16 06:28:18;;;;;;;9.80;7.93;;;24.10;80.60;;;;;;5025651;28;20264;-62
2023/06/16 06:30:46;;;;;;;13.53;7.83;;;24.30;79.50;;;;;;5031619;28;20214;-61
2023/06/16 06:33:13;;;;;;;9.40;7.20;;;24.30;79.40;;;;;;5032133;28;20196;-61
2023/06/16 06:35:40;;;;;;;11.50;7.80;;;24.40;79.30;;;;;;5034158;28;20223;-62
2023/06/16 06:38:07;;;;;;;11.43;7.90;;;24.60;79.10;;;;;;5028913;28;20239;-63
2023/06/16 06:40:36;;;;;;;10.17;7.43;;;24.70;78.90;;;;;;5033748;28;20206;-62
2023/06/16 06:43:04;;;;;;;11.73;8.33;;;24.90;78.60;;;;;;5035043;28;20206;-62
2023/06/16 06:45:44;;;;;;;8.17;7.33;;;25.10;77.50;;;;;;5033806;28;20313;-62
2023/06/16 06:48:11;;;;;;;8.43;6.73;;;25.20;76.70;;;;;;5036346;28;20206;-63
2023/06/16 06:50:40;;;;;;;13.63;7.90;;;25.40;76.50;;;;;;5036675;28;20246;-63
2023/06/16 06:53:08;;;;;;;11.27;7.83;;;25.50;76.40;;;;;;5038368;28;20206;-64
2023/06/16 06:55:35;;;;;;;8.03;7.23;;;25.60;76.20;;;;;;5035639;28;20555;-62
2023/06/16 06:58:02;;;;;;;9.10;8.20;;;25.70;76.00;;;;;;5032938;28;20714;-62
2023/06/16 07:00:29;;;;;;;13.00;8.33;;;25.90;74.50;;;;;;5031597;28;20213;-62
2023/06/16 07:02:57;;;;;;;8.90;8.00;;;26.10;74.00;;;;;;5032404;28;20628;-64
2023/06/16 07:05:24;;;;;;;8.43;7.53;;;26.20;73.90;;;;;;5035820;28;20211;-62
2023/06/16 07:07:51;;;;;;;9.40;8.00;;;26.30;73.40;;;;;;5031832;28;20216;-63
2023/06/16 07:10:19;;;;;;;9.67;7.33;;;26.50;72.00;;;;;;5029639;28;20213;-65
2023/06/16 07:12:47;;;;;;;10.50;7.43;;;26.60;70.90;;;;;;5035925;28;20289;-62
2023/06/16 07:15:14;;;;;;;9.83;7.87;;;26.60;70.10;;;;;;5034805;28;20222;-62
2023/06/16 07:17:41;;;;;;;9.40;8.27;;;26.70;69.80;;;;;;5035315;28;20203;-63
2023/06/16 07:20:09;;;;;;;9.13;7.47;;;26.70;69.60;;;;;;5031864;28;20203;-62
2023/06/16 07:22:36;;;;;;;14.93;7.67;;;26.80;70.10;;;;;;5034190;28;20282;-62
2023/06/16 07:25:03;;;;;;;20.50;9.67;;;26.80;69.90;;;;;;5036397;28;20302;-63
2023/06/16 07:27:30;;;;;;;13.13;9.33;;;26.90;70.20;;;;;;5040266;28;20207;-64
2023/06/16 07:29:57;;;;;;;11.17;8.13;;;27.00;70.10;;;;;;5034334;28;20706;-62
2023/06/16 07:32:24;;;;;;;9.07;6.87;;;27.20;69.90;;;;;;5033367;28;20289;-67
2023/06/16 07:34:52;;;;;;;9.87;7.90;;;27.20;69.50;;;;;;5036581;28;20222;-62
2023/06/16 07:37:19;;;;;;;18.63;8.87;;;27.40;69.10;;;;;;5034745;28;20195;-64
2023/06/16 07:39:46;;;;;;;10.43;8.13;;;27.60;68.90;;;;;;5031120;28;20259;-63
2023/06/16 07:42:14;;;;;;;11.20;8.53;;;27.70;68.10;;;;;;5039230;28;20254;-62
2023/06/16 07:44:42;;;;;;;10.83;9.53;;;27.80;66.50;;;;;;5029504;28;20542;-63
2023/06/16 07:47:09;;;;;;;9.20;8.27;;;27.70;67.10;;;;;;5027297;28;20241;-62
2023/06/16 07:49:37;;;;;;;11.97;8.50;;;27.80;66.30;;;;;;5036566;28;20238;-62
2023/06/16 07:52:05;;;;;;;9.83;7.00;;;27.80;67.00;;;;;;5030476;28;20278;-63
2023/06/16 07:54:32;;;;;;;16.43;9.30;;;27.90;67.70;;;;;;5033992;28;20195;-62
2023/06/16 07:56:59;;;;;;;11.70;7.73;;;28.00;67.80;;;;;;5039148;28;20261;-63
2023/06/16 07:59:26;;;;;;;9.30;8.13;;;28.20;67.00;;;;;;5033726;28;20218;-62
2023/06/16 08:01:54;;;;;;;10.40;7.70;;;28.30;66.70;;;;;;5037438;28;20199;-62
2023/06/16 08:04:21;;;;;;;11.87;8.37;;;28.40;65.40;;;;;;5033569;28;20196;-62
2023/06/16 08:06:49;;;;;;;8.77;6.80;;;28.50;64.50;;;;;;5032884;28;20203;-63
2023/06/16 08:09:16;;;;;;;8.17;6.60;;;28.50;65.50;;;;;;5031433;28;20213;-64
2023/06/16 08:11:43;;;;;;;8.27;7.40;;;28.60;65.90;;;;;;5037736;28;20210;-63
2023/06/16 08:14:10;;;;;;;9.47;6.33;;;28.70;65.70;;;;;;5030375;28;20207;-67
2023/06/16 08:16:37;;;;;;;11.30;6.97;;;28.80;65.70;;;;;;5031751;28;20220;-64
2023/06/16 08:19:05;;;;;;;8.53;5.73;;;29.00;65.40;;;;;;5036369;28;20590;-65
2023/06/16 08:21:32;;;;;;;7.77;6.47;;;29.10;65.90;;;;;;5030921;28;20216;-63
2023/06/16 08:23:59;;;;;;;8.50;6.40;;;29.20;64.50;;;;;;5031311;28;20195;-64
2023/06/16 08:26:27;;;;;;;8.33;6.90;;;29.30;64.20;;;;;;5030508;28;20202;-63
2023/06/16 08:28:54;;;;;;;9.57;6.53;;;29.40;63.80;;;;;;5030663;28;20211;-62
2023/06/16 08:31:21;;;;;;;7.10;6.40;;;29.40;63.40;;;;;;5034334;28;20199;-63
2023/06/16 08:33:50;;;;;;;8.60;6.33;;;29.50;63.60;;;;;;5034070;28;20217;-62
2023/06/16 08:36:20;;;;;;;7.07;6.00;;;29.60;63.10;;;;;;5031992;28;20689;-62
2023/06/16 08:38:48;;;;;;;10.23;7.67;;;29.60;63.10;;;;;;5030108;28;20195;-63
2023/06/16 08:41:18;;;;;;;12.43;7.50;;;29.70;62.90;;;;;;5036313;28;20199;-62
2023/06/16 08:43:48;;;;;;;8.83;7.03;;;29.80;63.50;;;;;;5035611;28;20199;-63
2023/06/16 08:46:15;;;;;;;7.53;6.57;;;29.80;60.20;;;;;;5033858;28;20612;-62
2023/06/16 08:48:42;;;;;;;6.07;5.30;;;29.80;61.30;;;;;;5037316;28;20199;-62
2023/06/16 08:51:13;;;;;;;6.67;5.80;;;29.70;62.00;;;;;;5029236;28;20199;-63
2023/06/16 08:53:43;;;;;;;9.97;5.17;;;29.80;61.50;;;;;;5039171;28;20281;-62
2023/06/16 08:56:10;;;;;;;7.40;6.07;;;29.90;61.30;;;;;;5032998;28;20219;-63
2023/06/16 08:58:40;;;;;;;7.40;5.13;;;29.90;62.10;;;;;;5031783;28;20188;-63
2023/06/16 09:01:07;;;;;;;7.53;5.93;;;30.00;62.50;;;;;;5034072;28;20294;-62
2023/06/16 09:03:37;;;;;;;12.40;5.70;;;30.00;60.90;;;;;;5027881;28;20223;-64
2023/06/16 09:06:04;;;;;;;8.53;6.20;;;30.00;61.70;;;;;;5035411;28;20199;-62
2023/06/16 09:08:31;;;;;;;8.20;4.20;;;30.10;61.70;;;;;;5034981;28;20199;-62
2023/06/16 09:11:06;;;;;;;7.67;5.13;;;30.20;62.10;;;;;;5031554;28;20216;-63
2023/06/16 09:13:33;;;;;;;6.43;5.20;;;30.30;61.60;;;;;;5032365;28;20198;-63
2023/06/16 09:16:00;;;;;;;6.63;5.30;;;30.40;61.40;;;;;;5030110;28;20211;-62
2023/06/16 09:18:37;;;;;;;9.17;5.53;;;30.50;60.80;;;;;;5028898;28;20199;-62
2023/06/16 09:21:08;;;;;;;7.97;6.70;;;30.60;60.50;;;;;;5034611;28;20210;-63
2023/06/16 09:23:35;;;;;;;7.10;5.57;;;30.60;59.40;;;;;;5033340;28;20628;-62
2023/06/16 09:26:12;;;;;;;7.13;6.43;;;30.60;59.00;;;;;;5031071;28;20227;-63
2023/06/16 09:28:40;;;;;;;7.10;5.97;;;30.40;58.90;;;;;;5033320;28;20198;-62
2023/06/16 09:31:11;;;;;;;10.17;6.63;;;30.30;59.90;;;;;;5036518;28;20203;-62
2023/06/16 09:33:40;;;;;;;10.20;5.53;;;30.20;60.30;;;;;;5028340;28;20208;-64
2023/06/16 09:36:09;;;;;;;12.47;6.33;;;30.20;59.30;;;;;;5032425;28;20219;-64
2023/06/16 09:38:37;;;;;;;10.87;6.20;;;30.20;59.70;;;;;;5037132;28;20209;-62
2023/06/16 09:41:21;;;;;;;8.17;6.47;;;30.30;60.70;;;;;;5034312;28;20274;-63
2023/06/16 09:43:48;;;;;;;6.07;5.50;;;30.40;59.90;;;;;;5031314;28;20195;-63
2023/06/16 09:46:15;;;;;;;6.53;5.90;;;30.50;59.40;;;;;;5034422;28;20229;-63
2023/06/16 09:48:47;;;;;;;6.03;5.43;;;30.60;59.90;;;;;;5030168;28;20207;-62
2023/06/16 09:51:17;;;;;;;6.23;5.57;;;30.70;60.10;;;;;;5031171;28;20229;-63
2023/06/16 09:53:46;;;;;;;7.37;5.50;;;30.80;59.20;;;;;;5033093;28;20273;-63
2023/06/16 09:56:15;;;;;;;6.07;5.47;;;30.90;59.00;;;;;;5026180;28;20219;-62
2023/06/16 09:58:43;;;;;;;7.33;4.93;;;31.00;59.20;;;;;;5029125;28;20659;-62
2023/06/16 10:01:13;;;;;;;5.63;4.70;;;31.10;58.60;;;;;;5033810;28;20826;-63
2023/06/16 10:03:43;;;;;;;8.93;5.70;;;31.20;58.40;;;;;;5031407;28;20299;-62
2023/06/16 10:06:17;;;;;;;9.37;5.53;;;31.40;57.90;;;;;;5036441;28;20192;-64
2023/06/16 10:08:49;;;;;;;5.37;4.87;;;31.40;57.80;;;;;;5028378;28;20704;-63
2023/06/16 10:11:19;;;;;;;6.37;4.20;;;31.50;58.30;;;;;;5028800;28;20294;-64
2023/06/16 10:13:58;;;;;;;5.13;4.40;;;31.60;57.30;;;;;;5035882;28;20211;-62
2023/06/16 10:16:29;;;;;;;6.30;4.23;;;31.70;56.20;;;;;;5035838;28;20301;-63
2023/06/16 10:19:00;;;;;;;8.50;4.73;;;31.80;55.60;;;;;;5037079;28;20199;-61
2023/06/16 10:21:27;;;;;;;5.93;5.10;;;31.80;54.80;;;;;;5037503;28;20205;-63
2023/06/16 10:23:55;;;;;;;4.60;4.20;;;31.80;54.60;;;;;;5031426;28;20206;-65
2023/06/16 10:26:22;;;;;;;6.10;4.30;;;31.90;54.20;;;;;;5031328;28;20592;-63
2023/06/16 10:28:50;;;;;;;5.43;4.00;;;31.80;54.10;;;;;;5030602;28;20213;-63
2023/06/16 10:31:18;;;;;;;4.77;3.90;;;31.90;54.90;;;;;;5035221;28;20199;-63
2023/06/16 10:33:55;;;;;;;6.93;3.80;;;32.00;54.60;;;;;;5036782;28;20202;-62
2023/06/16 10:36:31;;;;;;;4.63;4.03;;;32.10;54.10;;;;;;5037936;28;20728;-63
2023/06/16 10:39:12;;;;;;;5.07;3.87;;;32.10;53.60;;;;;;5032696;28;20229;-63
2023/06/16 10:41:57;;;;;;;7.40;3.87;;;32.20;53.30;;;;;;5035309;28;20199;-64
2023/06/16 10:44:29;;;;;;;3.90;3.60;;;32.30;52.00;;;;;;5035173;28;20202;-63
2023/06/16 10:47:07;;;;;;;4.30;3.90;;;32.30;52.30;;;;;;5030684;28;20257;-64
2023/06/16 10:49:49;;;;;;;4.20;3.80;;;32.40;52.70;;;;;;5033323;28;20710;-62
2023/06/16 10:52:28;;;;;;;5.27;3.63;;;32.40;52.40;;;;;;5036431;28;20222;-62
2023/06/16 10:54:56;;;;;;;7.27;4.63;;;32.50;51.90;;;;;;5033554;28;20220;-63
2023/06/16 10:57:27;;;;;;;7.33;3.90;;;32.50;50.80;;;;;;5036838;28;20294;-64
2023/06/16 11:00:10;;;;;;;4.33;3.93;;;32.50;51.00;;;;;;5034424;28;20616;-63
2023/06/16 11:02:49;;;;;;;3.80;3.50;;;32.50;50.90;;;;;;5033300;28;20318;-63
2023/06/16 11:05:20;;;;;;;4.93;3.70;;;32.40;50.90;;;;;;5042215;28;20241;-63
2023/06/16 11:08:04;;;;;;;4.43;3.77;;;32.40;50.90;;;;;;5029364;28;20222;-66
2023/06/16 11:10:50;;;;;;;4.00;3.57;;;32.40;52.00;;;;;;5033817;28;20211;-63
2023/06/16 11:13:22;;;;;;;4.50;3.50;;;32.40;52.70;;;;;;5037406;28;20255;-63
2023/06/16 11:15:52;;;;;;;7.13;4.00;;;32.50;51.70;;;;;;5029465;28;20277;-64
2023/06/16 11:18:24;;;;;;;3.70;3.30;;;32.60;51.80;;;;;;5035512;28;20199;-63
2023/06/16 11:20:58;;;;;;;4.57;3.53;;;32.70;52.30;;;;;;5034721;28;20699;-63
2023/06/16 11:23:26;;;;;;;5.63;3.87;;;32.80;51.20;;;;;;5030189;28;20238;-63
2023/06/16 11:26:06;;;;;;;3.90;3.50;;;32.90;48.60;;;;;;5040248;28;20216;-63
2023/06/16 11:28:40;;;;;;;3.73;3.37;;;32.80;48.70;;;;;;5036218;28;20203;-62
2023/06/16 11:31:08;;;;;;;4.53;4.13;;;32.70;49.60;;;;;;5033758;28;20697;-63
2023/06/16 11:33:36;;;;;;;8.63;3.50;;;32.60;50.80;;;;;;5036207;28;20211;-63
2023/06/16 11:36:16;;;;;;;5.03;4.00;;;32.70;50.50;;;;;;5032118;28;20225;-62
2023/06/16 11:38:45;;;;;;;3.90;3.60;;;32.80;50.20;;;;;;5028316;28;20208;-63
2023/06/16 11:41:16;;;;;;;5.53;3.63;;;32.90;50.20;;;;;;5034837;28;20195;-66
2023/06/16 11:43:43;;;;;;;5.47;3.97;;;33.00;49.90;;;;;;5038826;28;20195;-63
2023/06/16 11:46:11;;;;;;;3.60;3.30;;;33.00;50.20;;;;;;5031000;28;20207;-63
2023/06/16 11:48:39;;;;;;;6.23;3.87;;;33.10;49.70;;;;;;5034580;28;20282;-62
2023/06/16 11:51:06;;;;;;;4.43;3.50;;;33.10;48.40;;;;;;5028686;28;20200;-63
2023/06/16 11:53:35;;;;;;;4.90;4.00;;;33.10;48.80;;;;;;5033798;28;20588;-63
2023/06/16 11:56:07;;;;;;;3.37;3.07;;;33.10;48.30;;;;;;5033210;28;20210;-62
2023/06/16 11:58:34;;;;;;;6.90;3.23;;;33.10;48.40;;;;;;5038218;28;20256;-62
2023/06/16 12:01:03;;;;;;;6.37;4.13;;;33.10;48.90;;;;;;5032182;28;20217;-65
2023/06/16 12:03:35;;;;;;;3.60;3.30;;;33.10;49.50;;;;;;5035242;28;20202;-63
2023/06/16 12:06:10;;;;;;;4.27;3.20;;;33.00;47.80;;;;;;5029637;28;20218;-62
2023/06/16 12:08:45;;;;;;;4.73;3.50;;;32.90;46.90;;;;;;5036042;28;20289;-62
2023/06/16 12:11:17;;;;;;;4.47;3.30;;;32.90;47.50;;;;;;5039933;28;20226;-62
2023/06/16 12:13:44;;;;;;;3.80;3.50;;;32.90;47.70;;;;;;5037307;28;20686;-64
2023/06/16 12:16:12;;;;;;;3.50;3.20;;;33.00;47.90;;;;;;5033033;28;20225;-62
2023/06/16 12:18:40;;;;;;;5.50;3.80;;;33.00;47.80;;;;;;5035973;28;20281;-63
2023/06/16 12:21:20;;;;;;;4.87;3.30;;;33.00;47.80;;;;;;5031041;28;20195;-63
2023/06/16 12:23:53;;;;;;;3.83;3.53;;;33.00;48.80;;;;;;5033948;28;20656;-63
2023/06/16 12:26:28;;;;;;;5.40;3.40;;;33.00;47.40;;;;;;5040798;28;20640;-63
2023/06/16 12:28:57;;;;;;;3.77;3.30;;;33.00;47.60;;;;;;5035849;28;20505;-62
2023/06/16 12:31:26;;;;;;;6.83;3.97;;;33.00;48.00;;;;;;5035551;28;20211;-63
2023/06/16 12:33:54;;;;;;;3.57;3.27;;;33.00;46.80;;;;;;5035271;28;20207;-62
2023/06/16 12:36:22;;;;;;;4.50;3.63;;;33.00;47.40;;;;;;5035164;28;20210;-63
2023/06/16 12:38:50;;;;;;;6.90;3.20;;;32.90;46.70;;;;;;5038750;28;20191;-62
2023/06/16 12:41:18;;;;;;;3.50;3.20;;;32.70;46.90;;;;;;5038346;28;20246;-62
2023/06/16 12:43:54;;;;;;;5.17;3.23;;;32.50;46.00;;;;;;5032031;28;20199;-62
2023/06/16 12:46:21;;;;;;;4.40;3.20;;;32.30;47.50;;;;;;5034617;28;20213;-62
2023/06/16 12:48:49;;;;;;;4.87;3.50;;;32.30;46.90;;;;;;5028073;28;20651;-63
2023/06/16 12:51:17;;;;;;;4.13;3.83;;;32.10;46.70;;;;;;5031172;28;20715;-62